createdAt,value
2023-01-30T00:00:01.558Z,1007.1171307639038
2023-01-30T00:15:02.219Z,1007.1719894724199
2023-01-30T00:30:03.614Z,1006.8852341312588
2023-01-30T00:45:01.457Z,1006.4770546130196
2023-01-30T01:00:02.138Z,1006.0071495082392
2023-01-30T01:15:01.784Z,1005.5613705560817
2023-01-30T01:30:02.570Z,1005.4860784285731
2023-01-30T01:45:01.331Z,1005.1880950827118
2023-01-30T02:00:01.975Z,1004.7732201664179
2023-01-30T02:15:01.641Z,1004.5935733270677
2023-01-30T02:30:01.347Z,1004.3707825844186
2023-01-30T02:45:02.031Z,1004.3050335965858
2023-01-30T03:00:01.659Z,1003.9189680514069
2023-01-30T03:15:01.409Z,1003.7418457940262
2023-01-30T03:30:02.362Z,1003.4215357108477
2023-01-30T03:45:02.069Z,1003.2397075838207
2023-01-30T04:00:01.705Z,1003.0529896984601
2023-01-30T04:15:02.364Z,1002.9261488817605
2023-01-30T04:30:02.013Z,1003.1472725427161
2023-01-30T04:45:01.720Z,1003.0766828097808
2023-01-30T05:00:02.335Z,1002.8574741570628
2023-01-30T05:15:01.992Z,1002.9911034655998
2023-01-30T05:30:01.761Z,1003.0862882801792
2023-01-30T05:45:02.415Z,1003.109516697374
2023-01-30T06:00:02.030Z,1003.1244001833703
2023-01-30T06:15:01.701Z,1003.0728158530213
2023-01-30T06:30:02.337Z,1003.2280564633106
2023-01-30T06:45:02.107Z,1003.5393158097255
2023-01-30T07:00:01.770Z,1003.605152694946
2023-01-30T07:15:01.406Z,1003.566318110749
2023-01-30T07:30:02.091Z,1003.8475948243923
2023-01-30T07:45:01.735Z,1003.7354366424433
2023-01-30T08:00:01.369Z,1003.8643079653895
2023-01-30T08:15:01.997Z,1003.8695090575915
2023-01-30T08:30:01.651Z,1003.9981377884476
2023-01-30T08:45:01.324Z,1003.9959902709224
2023-01-30T09:00:01.982Z,1004.1470893943506
2023-01-30T09:15:01.611Z,1004.1696873867816
2023-01-30T09:30:01.341Z,1004.022419633915
2023-01-30T09:45:01.984Z,1004.1063699868837
2023-01-30T10:00:01.622Z,1004.040589426754
2023-01-30T10:15:01.258Z,1004.3108290833911
2023-01-30T10:30:01.955Z,1004.4373472043775
2023-01-30T10:45:01.595Z,1004.032530170829
2023-01-30T11:00:01.219Z,1004.1095293529669
2023-01-30T11:15:01.958Z,1003.7676933350024
2023-01-30T11:30:01.847Z,1003.6041310352792
2023-01-30T11:45:16.190Z,1004.1296451083747
2023-01-30T12:00:02.153Z,1003.9248801296526
2023-01-30T12:15:01.789Z,1004.5609716880801
2023-01-30T12:30:02.478Z,1004.617511193245
2023-01-30T12:45:02.126Z,1004.6585004729806
2023-01-30T13:00:01.793Z,1004.5640483215665
2023-01-30T13:15:01.460Z,1005.1269238932131
2023-01-30T13:30:02.113Z,1005.1071263832097
2023-01-30T13:45:01.749Z,1005.2415235316289
2023-01-30T14:00:01.402Z,1005.7263406577689
2023-01-30T14:15:02.049Z,1005.9157958789062
2023-01-30T14:30:01.803Z,1006.1665147418958
2023-01-30T14:45:01.459Z,1006.4612701658776
2023-01-30T15:00:15.593Z,1006.9630665088489
2023-01-30T15:15:01.909Z,1007.2719354873449
2023-01-30T15:30:01.603Z,1007.5562894831636
2023-01-30T15:45:02.243Z,1007.8141038336787
2023-01-30T16:00:01.862Z,1008.208225954105
2023-01-30T16:15:17.432Z,1008.590694495995
2023-01-30T16:30:01.912Z,1008.89995790687
2023-01-30T16:45:01.560Z,1008.9720168886683
2023-01-30T17:00:02.232Z,1009.5291028153518
2023-01-30T17:15:01.886Z,1009.7524932597947
2023-01-30T17:30:01.669Z,1010.0968887959349
2023-01-30T17:45:01.339Z,1010.1995539362941
2023-01-30T18:00:02.010Z,1010.2954967569932
2023-01-30T18:15:01.700Z,1010.3652204659853
2023-01-30T18:30:01.371Z,1010.6067598261242
2023-01-30T18:45:02.027Z,1010.6899575125105
2023-01-30T19:00:01.750Z,1011.0522797815544
2023-01-30T19:15:01.552Z,1011.1961299611912
2023-01-30T19:30:02.474Z,1011.5147907959582
2023-01-30T19:45:02.188Z,1011.6559940240602
2023-01-30T20:00:01.832Z,1011.8496999853013
2023-01-30T20:15:01.562Z,1012.0087428555079
2023-01-30T20:30:02.269Z,1012.2704697074901
2023-01-30T20:45:01.924Z,1012.4914907895989
2023-01-30T21:00:02.166Z,1012.5722658703952
2023-01-30T21:15:01.963Z,1012.8261935053177
2023-01-30T21:30:01.691Z,1012.9055338701506
2023-01-30T21:45:02.355Z,1013.2618251844642
2023-01-30T22:00:02.123Z,1013.2264636712284
2023-01-30T22:15:01.785Z,1013.2590850351054
2023-01-30T22:30:01.498Z,1013.4062448426349
2023-01-30T22:45:02.197Z,1013.2549548939594
2023-01-30T23:00:01.964Z,1013.4292562014183
2023-01-30T23:15:01.638Z,1013.4485695866143
2023-01-30T23:30:02.294Z,1013.4177366473114
2023-01-30T23:45:01.976Z,1013.4091625854221
